Time;durP1;ratioP1;P1;durP2;ratioP2;P2;SDS_P1;SDS_P2;PMS_P1;PMS_P2;Temp;Humidity;BMP_temperature;BMP_pressure;BME280_temperature;BME280_humidity;BME280_pressure;Samples;Min_cycle;Max_cycle;Signal;HPM_P1;HPM_P2
2022/10/11 00:01:54;;;;;;;11.00;4.78;;;13.20;99.90;;;;;;5028818;28;20034;-74
2022/10/11 00:04:20;;;;;;;11.20;5.53;;;13.20;99.90;;;;;;5040351;28;20430;-74
2022/10/11 00:06:46;;;;;;;8.55;5.00;;;13.10;99.90;;;;;;5032363;28;20111;-74
2022/10/11 00:09:12;;;;;;;8.43;4.47;;;13.10;99.90;;;;;;5035729;28;20064;-74
2022/10/11 00:11:38;;;;;;;10.18;4.78;;;13.10;99.90;;;;;;5037361;28;20036;-74
2022/10/11 00:14:05;;;;;;;10.00;3.55;;;13.10;99.90;;;;;;5038194;28;20052;-74
2022/10/11 00:16:30;;;;;;;8.27;4.40;;;13.00;99.90;;;;;;5032490;28;20041;-74
2022/10/11 00:18:56;;;;;;;10.57;5.03;;;13.00;99.90;;;;;;5036816;28;20022;-74
2022/10/11 00:21:22;;;;;;;11.38;5.22;;;13.00;99.90;;;;;;5040350;28;20036;-75
2022/10/11 00:23:48;;;;;;;10.35;5.65;;;13.10;99.90;;;;;;5052359;28;20045;-73
2022/10/11 00:26:14;;;;;;;10.30;4.28;;;13.30;99.90;;;;;;5048417;28;20465;-74
2022/10/11 00:28:41;;;;;;;8.43;4.50;;;13.50;99.90;;;;;;5036109;28;20112;-74
2022/10/11 00:31:13;;;;;;;9.63;5.10;;;13.20;99.90;;;;;;5036466;28;20598;-74
2022/10/11 00:33:39;;;;;;;13.68;5.22;;;13.10;99.90;;;;;;5040329;28;20029;-74
2022/10/11 00:36:05;;;;;;;8.93;4.72;;;12.90;99.90;;;;;;5041690;28;20406;-74
2022/10/11 00:38:31;;;;;;;9.45;4.18;;;13.00;99.90;;;;;;5039090;28;20037;-74
2022/10/11 00:40:57;;;;;;;10.25;5.03;;;12.90;99.90;;;;;;5032775;28;20060;-74
2022/10/11 00:43:26;;;;;;;7.15;4.78;;;12.90;99.90;;;;;;5036656;28;20041;-74
2022/10/11 00:45:58;;;;;;;10.05;4.82;;;12.90;99.90;;;;;;5036823;28;20486;-74
2022/10/11 00:48:40;;;;;;;13.07;4.20;;;13.00;99.90;;;;;;5038029;28;20112;-74
2022/10/11 00:51:31;;;;;;;10.48;5.30;;;13.00;99.90;;;;;;5034043;28;20033;-74
2022/10/11 00:53:59;;;;;;;8.68;4.70;;;12.90;99.90;;;;;;5042610;28;20056;-74
2022/10/11 00:56:30;;;;;;;10.65;5.30;;;12.80;99.90;;;;;;5033666;28;20025;-74
2022/10/11 00:58:59;;;;;;;9.52;4.70;;;13.00;99.90;;;;;;5038127;28;20029;-74
2022/10/11 01:01:25;;;;;;;8.02;4.35;;;13.10;99.90;;;;;;5037315;28;20073;-74
2022/10/11 01:03:51;;;;;;;8.48;4.35;;;13.00;99.90;;;;;;5033407;28;20048;-74
2022/10/11 01:06:16;;;;;;;8.65;4.47;;;13.00;99.90;;;;;;5031686;28;20080;-74
2022/10/11 01:08:43;;;;;;;8.90;4.80;;;13.00;99.90;;;;;;5032160;28;20037;-74
2022/10/11 01:11:13;;;;;;;10.35;4.78;;;13.20;99.90;;;;;;5033099;28;20034;-74
2022/10/11 01:13:57;;;;;;;7.65;4.70;;;13.20;99.90;;;;;;5032771;28;20099;-74
2022/10/11 01:16:54;;;;;;;8.63;5.72;;;13.20;99.90;;;;;;5031485;28;20239;-74
2022/10/11 01:19:44;;;;;;;10.52;6.00;;;13.10;99.90;;;;;;5030918;28;20025;-74
2022/10/11 01:22:50;;;;;;;13.05;4.90;;;13.10;99.90;;;;;;5034766;28;20037;-74
2022/10/11 01:25:38;;;;;;;11.32;5.28;;;12.70;99.90;;;;;;5031298;28;20539;-74
2022/10/11 01:28:21;;;;;;;9.57;4.75;;;12.80;99.90;;;;;;5031438;28;20033;-74
2022/10/11 01:30:49;;;;;;;8.23;4.53;;;12.70;99.90;;;;;;5031268;28;20107;-74
2022/10/11 01:33:40;;;;;;;11.85;5.50;;;12.70;99.90;;;;;;5032967;28;20542;-74
2022/10/11 01:36:26;;;;;;;8.68;4.60;;;12.60;99.90;;;;;;5033454;28;20031;-74
2022/10/11 01:39:04;;;;;;;6.78;4.22;;;12.50;99.90;;;;;;5031701;28;20124;-74
2022/10/11 01:41:39;;;;;;;10.98;4.93;;;12.50;99.90;;;;;;5036979;28;20045;-74
2022/10/11 01:44:06;;;;;;;8.27;4.60;;;12.50;99.90;;;;;;5031613;28;20053;-74
2022/10/11 01:46:34;;;;;;;7.00;4.40;;;12.40;99.90;;;;;;5035915;28;20032;-74
2022/10/11 01:49:01;;;;;;;11.70;5.95;;;12.40;99.90;;;;;;5032779;28;20033;-74
2022/10/11 01:51:40;;;;;;;8.45;5.10;;;12.40;99.90;;;;;;5030713;28;20036;-74
2022/10/11 01:54:43;;;;;;;7.75;4.63;;;12.40;99.90;;;;;;5032696;28;20390;-74
2022/10/11 01:57:30;;;;;;;7.00;4.30;;;12.40;99.90;;;;;;5030809;28;20109;-74
2022/10/11 02:00:02;;;;;;;8.43;5.07;;;12.40;99.90;;;;;;5030920;28;20056;-74
2022/10/11 02:02:40;;;;;;;8.65;4.75;;;12.40;99.90;;;;;;5031134;28;20041;-74
2022/10/11 02:05:31;;;;;;;9.32;4.60;;;12.30;99.90;;;;;;5029036;28;20426;-74
2022/10/11 02:08:21;;;;;;;9.73;4.57;;;12.20;99.90;;;;;;5029585;28;20649;-74
2022/10/11 02:10:52;;;;;;;8.80;5.05;;;12.30;99.90;;;;;;5032849;28;20052;-74
2022/10/11 02:13:38;;;;;;;8.40;4.85;;;12.40;99.90;;;;;;5033783;28;20065;-74
2022/10/11 02:16:09;;;;;;;9.20;5.25;;;12.40;99.90;;;;;;5030387;28;20029;-74
2022/10/11 02:18:40;;;;;;;10.77;5.00;;;12.40;99.90;;;;;;5030974;28;20033;-74
2022/10/11 02:21:11;;;;;;;9.50;5.15;;;12.40;99.90;;;;;;5031047;28;20372;-74
2022/10/11 02:23:42;;;;;;;11.30;5.28;;;12.30;99.90;;;;;;5034168;28;20025;-74
2022/10/11 02:26:11;;;;;;;10.77;5.22;;;12.40;99.90;;;;;;5031982;28;20115;-74
2022/10/11 02:28:40;;;;;;;12.75;5.60;;;12.30;99.90;;;;;;5032849;28;20455;-74
2022/10/11 02:31:09;;;;;;;8.80;4.43;;;12.20;99.90;;;;;;5033631;28;20025;-74
2022/10/11 02:34:04;;;;;;;11.00;4.63;;;12.20;99.90;;;;;;5032975;28;20075;-74
2022/10/11 02:37:02;;;;;;;9.23;5.32;;;12.20;99.90;;;;;;5030521;28;20168;-74
2022/10/11 02:39:36;;;;;;;7.90;4.72;;;12.20;99.90;;;;;;5029835;28;20070;-74
2022/10/11 02:42:05;;;;;;;12.57;5.30;;;12.20;99.90;;;;;;5031083;28;20037;-74
2022/10/11 02:44:42;;;;;;;10.65;5.25;;;12.20;99.90;;;;;;5028480;28;20112;-74
2022/10/11 02:47:09;;;;;;;11.02;5.40;;;12.30;99.90;;;;;;5037232;28;20527;-74
2022/10/11 02:49:35;;;;;;;8.52;5.30;;;12.40;99.90;;;;;;5030095;28;20037;-74
2022/10/11 02:52:04;;;;;;;9.68;4.97;;;12.40;99.90;;;;;;5036511;28;20061;-74
2022/10/11 02:54:30;;;;;;;8.68;5.15;;;12.30;99.90;;;;;;5029724;28;20030;-74
2022/10/11 02:56:56;;;;;;;9.43;5.35;;;12.30;99.90;;;;;;5034839;28;20029;-74
2022/10/11 02:59:21;;;;;;;9.15;4.90;;;12.30;99.90;;;;;;5029244;28;20029;-74
2022/10/11 03:01:47;;;;;;;12.38;5.38;;;12.00;99.90;;;;;;5029371;28;20104;-73
2022/10/11 03:04:13;;;;;;;8.20;4.78;;;12.10;99.90;;;;;;5026195;28;20037;-73
2022/10/11 03:06:39;;;;;;;8.38;4.80;;;12.00;99.90;;;;;;5025659;28;20026;-73
2022/10/11 03:09:04;;;;;;;8.52;5.00;;;12.00;99.90;;;;;;5024238;28;20037;-73
2022/10/11 03:11:30;;;;;;;11.52;4.80;;;12.00;99.90;;;;;;5029798;28;20379;-73
2022/10/11 03:13:56;;;;;;;7.53;4.97;;;12.00;99.90;;;;;;5024868;28;20041;-73
2022/10/11 03:16:21;;;;;;;12.02;5.60;;;12.00;99.90;;;;;;5025047;28;20029;-73
2022/10/11 03:18:47;;;;;;;8.35;4.93;;;12.00;99.90;;;;;;5025166;28;20028;-73
2022/10/11 03:21:12;;;;;;;13.90;4.65;;;12.20;99.90;;;;;;5021788;28;20427;-73
2022/10/11 03:23:38;;;;;;;7.95;4.53;;;12.10;99.90;;;;;;5023632;28;20128;-73
2022/10/11 03:26:04;;;;;;;10.75;4.68;;;12.10;99.90;;;;;;5024053;28;20033;-73
2022/10/11 03:28:30;;;;;;;9.48;4.50;;;12.00;99.90;;;;;;5024195;28;20172;-73
2022/10/11 03:30:56;;;;;;;8.32;5.68;;;12.00;99.90;;;;;;5024086;28;20116;-73
2022/10/11 03:33:22;;;;;;;9.35;4.53;;;11.90;99.90;;;;;;5025427;28;20071;-73
2022/10/11 03:35:49;;;;;;;9.65;4.68;;;11.90;99.90;;;;;;5024577;28;20041;-73
2022/10/11 03:38:18;;;;;;;9.05;5.05;;;11.90;99.90;;;;;;5026726;28;20078;-73
2022/10/11 03:40:44;;;;;;;7.97;4.95;;;12.00;99.90;;;;;;5025895;28;20103;-73
2022/10/11 03:43:10;;;;;;;7.50;5.40;;;12.00;99.90;;;;;;5025846;28;20468;-73
2022/10/11 03:45:36;;;;;;;9.60;5.72;;;11.90;99.90;;;;;;5026423;28;20593;-73
2022/10/11 03:48:03;;;;;;;10.23;5.40;;;11.80;99.90;;;;;;5025595;28;20029;-73
2022/10/11 03:50:29;;;;;;;9.02;5.25;;;11.80;99.90;;;;;;5024313;28;20033;-73
2022/10/11 03:52:54;;;;;;;10.15;5.10;;;11.80;99.90;;;;;;5024130;28;20495;-73
2022/10/11 03:55:20;;;;;;;7.80;5.03;;;11.90;99.90;;;;;;5024938;28;20079;-73
2022/10/11 03:57:46;;;;;;;9.50;5.70;;;11.90;99.90;;;;;;5023545;28;20025;-73
2022/10/11 04:00:12;;;;;;;6.47;4.18;;;11.90;99.90;;;;;;5021750;28;20128;-73
2022/10/11 04:02:37;;;;;;;10.77;4.78;;;11.90;99.90;;;;;;5024297;28;20037;-73
2022/10/11 04:05:05;;;;;;;10.18;5.75;;;12.00;99.90;;;;;;5020960;28;20491;-73
2022/10/11 04:07:31;;;;;;;8.77;4.88;;;12.00;99.90;;;;;;5021683;28;20033;-73
2022/10/11 04:09:57;;;;;;;8.23;4.60;;;12.00;99.90;;;;;;5022807;28;20032;-73
2022/10/11 04:12:22;;;;;;;9.40;5.03;;;11.90;99.90;;;;;;5021344;28;20383;-73
2022/10/11 04:14:48;;;;;;;7.07;4.40;;;12.00;99.90;;;;;;5020520;28;20069;-73
2022/10/11 04:17:14;;;;;;;8.07;5.03;;;11.70;99.90;;;;;;5022391;28;20071;-73
2022/10/11 04:19:40;;;;;;;8.88;4.45;;;11.70;99.90;;;;;;5021044;28;20112;-73
2022/10/11 04:22:06;;;;;;;10.10;5.18;;;11.70;99.90;;;;;;5019929;28;20566;-73
2022/10/11 04:24:32;;;;;;;12.35;5.13;;;11.90;99.90;;;;;;5020867;28;20184;-73
2022/10/11 04:26:57;;;;;;;14.90;6.32;;;11.80;99.90;;;;;;5022146;28;21154;-73
2022/10/11 04:29:24;;;;;;;9.02;5.45;;;11.80;99.90;;;;;;5019799;28;20075;-73
2022/10/11 04:31:50;;;;;;;8.63;4.53;;;12.00;99.90;;;;;;5024973;28;20083;-74
2022/10/11 04:34:16;;;;;;;12.85;5.57;;;12.10;99.90;;;;;;5020955;28;20033;-73
2022/10/11 04:36:41;;;;;;;10.02;5.70;;;12.10;99.90;;;;;;5019440;28;20037;-73
2022/10/11 04:39:07;;;;;;;10.85;5.55;;;12.50;99.90;;;;;;5022820;28;20456;-73
2022/10/11 04:41:33;;;;;;;9.82;4.72;;;12.50;99.90;;;;;;5020130;28;20064;-73
2022/10/11 04:44:00;;;;;;;12.32;5.00;;;12.40;99.90;;;;;;5027806;28;20498;-73
2022/10/11 04:46:26;;;;;;;7.63;4.97;;;12.40;99.90;;;;;;5022632;28;20041;-73
2022/10/11 04:48:51;;;;;;;9.05;4.93;;;12.20;99.90;;;;;;5021574;28;20046;-73
2022/10/11 04:51:17;;;;;;;8.90;4.80;;;12.10;99.90;;;;;;5022621;28;20036;-73
2022/10/11 04:53:43;;;;;;;9.10;5.25;;;12.10;99.90;;;;;;5029903;28;20057;-73
2022/10/11 04:56:10;;;;;;;8.32;4.93;;;12.20;99.90;;;;;;5021315;28;20064;-73
2022/10/11 04:58:39;;;;;;;8.15;5.18;;;12.00;99.90;;;;;;5025991;28;20025;-73
2022/10/11 05:01:05;;;;;;;8.10;5.68;;;12.10;99.90;;;;;;5031238;28;20040;-73
2022/10/11 05:03:31;;;;;;;14.40;5.05;;;12.00;99.90;;;;;;5023476;28;20041;-73
2022/10/11 05:05:56;;;;;;;10.18;5.60;;;11.90;99.90;;;;;;5024193;28;20472;-73
2022/10/11 05:08:23;;;;;;;7.90;5.47;;;11.70;99.90;;;;;;5023913;28;20029;-73
2022/10/11 05:10:55;;;;;;;8.93;5.45;;;11.60;99.90;;;;;;5027669;28;20610;-73
2022/10/11 05:13:21;;;;;;;7.15;4.75;;;11.70;99.90;;;;;;5023163;28;20046;-73
2022/10/11 05:15:47;;;;;;;6.88;4.97;;;11.60;99.90;;;;;;5023954;28;20080;-73
2022/10/11 05:18:13;;;;;;;9.10;4.93;;;11.60;99.90;;;;;;5022584;28;20455;-73
2022/10/11 05:20:38;;;;;;;10.05;5.15;;;11.50;99.90;;;;;;5022683;28;20104;-72
2022/10/11 05:23:04;;;;;;;9.10;5.03;;;11.60;99.90;;;;;;5030048;28;20045;-73
2022/10/11 05:25:30;;;;;;;8.50;4.55;;;11.70;99.90;;;;;;5029799;28;20021;-72
2022/10/11 05:27:56;;;;;;;9.82;5.50;;;11.60;99.90;;;;;;5027757;28;20033;-73
2022/10/11 05:30:22;;;;;;;8.50;5.00;;;11.60;99.90;;;;;;5023875;28;20029;-73
2022/10/11 05:32:47;;;;;;;8.82;5.32;;;11.50;99.90;;;;;;5022919;28;20097;-73
2022/10/11 05:35:13;;;;;;;10.65;4.93;;;11.50;99.90;;;;;;5023117;28;20108;-73
2022/10/11 05:37:39;;;;;;;8.32;4.60;;;11.40;99.90;;;;;;5043097;28;20075;-71
2022/10/11 05:40:05;;;;;;;9.90;5.40;;;11.30;99.90;;;;;;5023914;28;20430;-72
2022/10/11 05:42:31;;;;;;;7.95;5.28;;;11.50;99.90;;;;;;5022945;28;20041;-72
2022/10/11 05:44:57;;;;;;;12.55;5.38;;;11.60;99.90;;;;;;5033057;28;20380;-72
2022/10/11 05:47:22;;;;;;;10.13;5.47;;;11.90;99.90;;;;;;5024387;28;20090;-73
2022/10/11 05:49:48;;;;;;;9.73;5.30;;;11.80;99.90;;;;;;5021892;28;20108;-74
2022/10/11 05:52:18;;;;;;;8.73;5.35;;;11.80;99.90;;;;;;5024142;28;20060;-73
2022/10/11 05:54:44;;;;;;;10.20;5.07;;;11.90;99.90;;;;;;5028906;28;20025;-73
2022/10/11 05:57:10;;;;;;;9.50;5.40;;;11.80;99.90;;;;;;5024827;28;20597;-73
2022/10/11 05:59:35;;;;;;;12.65;4.78;;;12.00;99.90;;;;;;5025363;28;20503;-73
2022/10/11 06:02:02;;;;;;;10.40;6.22;;;11.80;99.90;;;;;;5028819;28;20128;-73
2022/10/11 06:04:27;;;;;;;12.85;5.32;;;11.90;99.90;;;;;;5029569;28;20059;-73
2022/10/11 06:06:53;;;;;;;10.02;5.28;;;11.90;99.90;;;;;;5022510;28;20057;-73
2022/10/11 06:09:19;;;;;;;7.13;4.80;;;11.80;99.90;;;;;;5026842;28;20071;-74
2022/10/11 06:11:45;;;;;;;7.72;5.07;;;11.80;99.90;;;;;;5026711;28;20674;-74
2022/10/11 06:14:10;;;;;;;9.15;5.13;;;11.80;99.90;;;;;;5027923;28;20060;-74
2022/10/11 06:16:37;;;;;;;11.10;5.20;;;11.90;99.90;;;;;;5032837;28;20131;-74
2022/10/11 06:19:03;;;;;;;7.57;4.57;;;11.70;99.90;;;;;;5023909;28;20060;-74
2022/10/11 06:21:28;;;;;;;7.55;4.75;;;11.60;99.90;;;;;;5030552;28;20072;-74
2022/10/11 06:23:54;;;;;;;10.70;5.65;;;11.70;99.90;;;;;;5024898;28;20033;-74
2022/10/11 06:26:20;;;;;;;9.27;5.10;;;11.80;99.90;;;;;;5027866;28;20029;-74
2022/10/11 06:28:46;;;;;;;16.25;4.80;;;11.80;99.90;;;;;;5033367;28;20932;-74
2022/10/11 06:31:12;;;;;;;10.35;5.03;;;11.80;99.90;;;;;;5031849;28;20525;-74
2022/10/11 06:33:37;;;;;;;13.93;5.25;;;11.70;99.90;;;;;;5023843;28;20036;-75
2022/10/11 06:36:09;;;;;;;11.20;5.15;;;11.60;99.90;;;;;;5024785;28;20030;-74
2022/10/11 06:38:35;;;;;;;9.98;5.35;;;11.70;99.90;;;;;;5028614;28;20475;-74
2022/10/11 06:41:19;;;;;;;6.38;4.10;;;11.90;99.90;;;;;;5038164;28;20029;-74
2022/10/11 06:43:45;;;;;;;14.95;5.60;;;11.90;99.90;;;;;;5028472;28;20029;-73
2022/10/11 06:46:11;;;;;;;8.90;5.00;;;11.90;99.90;;;;;;5030361;28;20091;-73
2022/10/11 06:48:42;;;;;;;8.75;5.07;;;11.90;99.90;;;;;;5030195;28;20022;-73
2022/10/11 06:51:08;;;;;;;7.93;4.57;;;11.90;99.90;;;;;;5029859;28;20028;-74
2022/10/11 06:53:34;;;;;;;8.50;5.57;;;12.10;99.90;;;;;;5029763;28;20029;-73
2022/10/11 06:56:04;;;;;;;24.65;6.22;;;12.10;99.90;;;;;;5030252;28;20026;-75
2022/10/11 06:58:30;;;;;;;9.45;5.45;;;12.30;99.90;;;;;;5029415;28;20073;-74
2022/10/11 07:01:06;;;;;;;21.88;6.00;;;12.60;99.90;;;;;;5030102;28;20495;-75
2022/10/11 07:03:32;;;;;;;10.48;4.70;;;12.60;99.90;;;;;;5030143;28;20029;-75
2022/10/11 07:06:22;;;;;;;13.05;5.22;;;12.70;99.90;;;;;;5044833;28;20032;-75
2022/10/11 07:08:48;;;;;;;10.07;4.80;;;12.60;99.90;;;;;;5029018;28;20041;-75
2022/10/11 07:11:19;;;;;;;9.07;5.32;;;12.50;99.90;;;;;;5030263;28;20040;-77
2022/10/11 07:13:53;;;;;;;7.28;4.88;;;12.60;99.90;;;;;;5029308;28;20045;-76
2022/10/11 07:16:20;;;;;;;9.68;5.45;;;12.70;99.90;;;;;;5028652;28;20504;-75
2022/10/11 07:18:46;;;;;;;9.48;4.45;;;12.70;99.90;;;;;;5028674;28;20104;-75
2022/10/11 07:21:14;;;;;;;10.38;4.22;;;12.70;99.90;;;;;;5028649;28;20351;-74
2022/10/11 07:23:40;;;;;;;8.30;5.07;;;12.80;99.90;;;;;;5029230;28;20140;-75
2022/10/11 07:26:07;;;;;;;7.10;4.05;;;12.80;99.90;;;;;;5029286;28;20506;-74
2022/10/11 07:28:34;;;;;;;9.05;5.28;;;12.70;99.90;;;;;;5026795;28;20037;-77
2022/10/11 07:31:09;;;;;;;18.05;6.75;;;12.60;99.90;;;;;;5025501;28;20037;-76
2022/10/11 07:33:35;;;;;;;9.52;5.15;;;12.60;99.90;;;;;;5029050;28;20040;-75
2022/10/11 07:36:01;;;;;;;9.05;5.68;;;12.60;99.90;;;;;;5029690;28;20030;-75
2022/10/11 07:38:27;;;;;;;8.10;4.53;;;12.60;99.90;;;;;;5026431;28;20029;-75
2022/10/11 07:40:53;;;;;;;11.85;6.50;;;12.60;99.90;;;;;;5024401;28;20033;-74
2022/10/11 07:43:18;;;;;;;11.63;5.75;;;12.60;99.90;;;;;;5025547;28;20083;-75
2022/10/11 07:45:47;;;;;;;12.20;4.65;;;12.60;99.90;;;;;;5023580;28;20033;-74
2022/10/11 07:48:13;;;;;;;8.80;4.78;;;12.60;99.90;;;;;;5024552;28;20560;-74
2022/10/11 07:50:39;;;;;;;11.63;5.07;;;12.60;99.90;;;;;;5028491;28;20049;-75
2022/10/11 07:53:05;;;;;;;10.65;4.65;;;12.70;99.90;;;;;;5024738;28;20476;-75
2022/10/11 07:55:38;;;;;;;10.40;4.93;;;12.80;99.90;;;;;;5024664;28;20037;-74
2022/10/11 07:58:11;;;;;;;9.70;4.80;;;12.90;99.90;;;;;;5025916;28;20025;-74
2022/10/11 08:00:41;;;;;;;9.27;4.13;;;13.00;99.90;;;;;;5031910;28;20025;-75
2022/10/11 08:03:07;;;;;;;10.30;5.00;;;13.00;99.90;;;;;;5031472;28;20120;-74
2022/10/11 08:05:33;;;;;;;10.27;4.90;;;13.10;99.90;;;;;;5025899;28;20480;-74
2022/10/11 08:07:59;;;;;;;9.77;5.10;;;13.30;99.90;;;;;;5024051;28;20026;-75
2022/10/11 08:10:25;;;;;;;9.20;4.72;;;13.40;99.90;;;;;;5024297;28;20044;-76
2022/10/11 08:12:52;;;;;;;12.57;4.95;;;13.60;99.90;;;;;;5024963;28;20092;-75
2022/10/11 08:15:19;;;;;;;8.73;4.82;;;13.70;99.90;;;;;;5024455;28;20021;-75
2022/10/11 08:17:45;;;;;;;9.45;5.10;;;13.80;99.90;;;;;;5024031;28;20051;-75
2022/10/11 08:20:11;;;;;;;10.38;4.43;;;13.80;99.90;;;;;;5025027;28;20083;-75
2022/10/11 08:22:38;;;;;;;5.47;3.55;;;13.70;99.90;;;;;;5030636;28;20037;-76
2022/10/11 08:25:04;;;;;;;10.13;3.92;;;13.80;99.90;;;;;;5024743;28;20127;-77
2022/10/11 08:27:30;;;;;;;11.32;4.38;;;13.80;99.90;;;;;;5031466;28;20468;-75
2022/10/11 08:29:55;;;;;;;9.38;4.18;;;13.80;99.90;;;;;;5030538;28;20083;-76
2022/10/11 08:32:21;;;;;;;7.20;4.40;;;13.80;99.90;;;;;;5023549;28;20029;-76
2022/10/11 08:34:46;;;;;;;10.25;4.63;;;13.90;99.90;;;;;;5025434;28;20079;-76
2022/10/11 08:37:12;;;;;;;8.80;4.97;;;13.90;99.90;;;;;;5025547;28;20406;-76
2022/10/11 08:39:37;;;;;;;8.98;5.10;;;13.90;99.90;;;;;;5022998;28;20037;-76
2022/10/11 08:42:10;;;;;;;9.65;4.45;;;14.00;99.90;;;;;;5024715;28;20037;-77
2022/10/11 08:44:57;;;;;;;10.30;4.78;;;14.10;99.90;;;;;;5024617;28;20077;-76
2022/10/11 08:47:28;;;;;;;12.57;5.90;;;14.10;99.90;;;;;;5024906;28;20036;-76
2022/10/11 08:49:55;;;;;;;9.70;5.32;;;14.20;99.90;;;;;;5024080;28;20025;-76
2022/10/11 08:52:26;;;;;;;8.07;4.68;;;14.20;99.90;;;;;;5023469;28;20048;-76
2022/10/11 08:55:06;;;;;;;6.55;4.00;;;14.30;99.90;;;;;;5023942;28;20038;-76
2022/10/11 08:57:34;;;;;;;7.55;4.80;;;14.40;99.90;;;;;;5032543;28;20033;-76
2022/10/11 09:00:12;;;;;;;9.02;5.05;;;14.50;99.90;;;;;;5027241;28;20032;-76
2022/10/11 09:02:53;;;;;;;11.30;4.65;;;14.60;99.90;;;;;;5023382;28;20060;-76
2022/10/11 09:05:20;;;;;;;7.78;4.93;;;14.70;99.90;;;;;;5023267;28;20032;-76
2022/10/11 09:08:07;;;;;;;8.30;4.35;;;14.70;99.90;;;;;;5023520;28;20044;-75
2022/10/11 09:10:38;;;;;;;8.27;4.30;;;14.80;99.90;;;;;;5022940;28;20062;-76
2022/10/11 09:13:32;;;;;;;8.70;4.70;;;14.80;99.90;;;;;;5025725;28;20037;-75
2022/10/11 09:16:26;;;;;;;6.23;4.60;;;14.90;99.90;;;;;;5022368;28;20042;-75
2022/10/11 09:19:19;;;;;;;10.18;5.07;;;15.00;99.90;;;;;;5023987;28;20271;-76
2022/10/11 09:21:53;;;;;;;7.07;4.90;;;15.20;99.90;;;;;;5023927;28;20041;-77
2022/10/11 09:24:50;;;;;;;8.48;4.55;;;15.30;99.90;;;;;;5023574;28;20579;-76
2022/10/11 09:27:54;;;;;;;8.98;4.47;;;15.20;99.90;;;;;;5026828;28;20172;-76
2022/10/11 09:30:20;;;;;;;7.80;4.90;;;15.20;99.90;;;;;;5039021;28;20047;-76
2022/10/11 09:33:08;;;;;;;8.82;4.72;;;15.40;99.90;;;;;;5026436;28;20036;-76
2022/10/11 09:35:39;;;;;;;8.88;4.53;;;15.50;99.90;;;;;;5027245;28;20044;-76
2022/10/11 09:38:37;;;;;;;9.57;4.55;;;15.60;99.90;;;;;;5027063;28;20044;-76
2022/10/11 09:41:21;;;;;;;9.07;4.65;;;15.70;99.90;;;;;;5027458;28;20040;-76
2022/10/11 09:43:49;;;;;;;8.57;5.07;;;15.80;99.90;;;;;;5027034;28;20034;-76
2022/10/11 09:46:35;;;;;;;11.52;4.28;;;15.80;99.90;;;;;;5035030;28;20171;-76
2022/10/11 09:49:06;;;;;;;7.70;4.55;;;15.80;99.90;;;;;;5043160;28;20646;-76
2022/10/11 09:51:33;;;;;;;9.98;4.18;;;15.80;99.90;;;;;;5028069;28;20045;-76
2022/10/11 09:54:04;;;;;;;10.32;4.50;;;15.90;99.90;;;;;;5027026;28;20052;-77
2022/10/11 09:56:32;;;;;;;10.55;4.25;;;15.90;99.90;;;;;;5034447;28;20688;-76
2022/10/11 09:59:24;;;;;;;9.07;4.13;;;16.10;99.90;;;;;;5026234;28;20056;-77
2022/10/11 10:02:14;;;;;;;9.07;4.70;;;16.20;99.90;;;;;;5026225;28;20033;-77
2022/10/11 10:04:54;;;;;;;10.02;4.43;;;16.20;99.90;;;;;;5028508;28;20026;-76
2022/10/11 10:07:20;;;;;;;13.85;4.40;;;16.10;99.90;;;;;;5028726;28;20025;-76
2022/10/11 10:09:46;;;;;;;8.77;3.95;;;15.90;99.90;;;;;;5029852;28;20032;-77
2022/10/11 10:12:17;;;;;;;8.48;4.45;;;15.80;99.90;;;;;;5024192;28;20038;-76
2022/10/11 10:14:53;;;;;;;9.52;4.50;;;15.80;99.90;;;;;;5023598;28;20531;-79
2022/10/11 10:17:19;;;;;;;6.53;3.80;;;15.80;99.90;;;;;;5026787;28;20075;-77
2022/10/11 10:19:50;;;;;;;9.45;4.18;;;15.80;99.90;;;;;;5027550;28;20509;-76
2022/10/11 10:22:26;;;;;;;8.63;4.10;;;15.90;99.90;;;;;;5026183;28;20480;-77
2022/10/11 10:24:54;;;;;;;10.98;4.95;;;15.90;99.90;;;;;;5034117;28;20090;-77
2022/10/11 10:27:23;;;;;;;8.77;3.83;;;16.00;99.90;;;;;;5032180;28;20618;-77
2022/10/11 10:30:07;;;;;;;9.30;4.07;;;16.00;99.90;;;;;;5026996;28;20038;-77
2022/10/11 10:33:04;;;;;;;9.68;4.22;;;16.20;99.90;;;;;;5027249;28;20129;-77
2022/10/11 10:36:01;;;;;;;13.73;4.03;;;16.50;99.90;;;;;;5025670;28;20096;-76
2022/10/11 10:38:47;;;;;;;8.55;4.07;;;16.50;99.90;;;;;;5027344;28;20036;-75
2022/10/11 10:41:15;;;;;;;6.15;3.88;;;16.60;99.90;;;;;;5026661;28;20053;-77
2022/10/11 10:43:50;;;;;;;8.10;4.72;;;16.90;99.90;;;;;;5025339;28;20567;-76
2022/10/11 10:46:33;;;;;;;6.28;3.95;;;16.90;99.90;;;;;;5024433;28;20033;-77
2022/10/11 10:48:58;;;;;;;8.40;4.00;;;17.10;99.90;;;;;;5023718;28;20034;-76
2022/10/11 10:51:56;;;;;;;6.47;3.83;;;17.00;99.90;;;;;;5023636;28;20033;-76
2022/10/11 10:54:28;;;;;;;5.97;4.05;;;16.90;99.90;;;;;;5023216;28;20049;-78
2022/10/11 10:56:59;;;;;;;9.02;3.67;;;16.90;99.90;;;;;;5028572;28;20107;-75
2022/10/11 10:59:43;;;;;;;6.50;3.10;;;17.00;99.90;;;;;;5024831;28;20026;-76
2022/10/11 11:02:23;;;;;;;6.63;4.20;;;17.00;99.90;;;;;;5027651;28;20514;-76
2022/10/11 11:05:30;;;;;;;11.60;5.00;;;17.00;99.90;;;;;;5028986;28;20030;-76
2022/10/11 11:08:27;;;;;;;6.90;3.70;;;17.00;99.90;;;;;;5025247;28;20083;-76
2022/10/11 11:11:10;;;;;;;20.17;5.05;;;17.00;99.90;;;;;;5025065;28;20088;-76
2022/10/11 11:13:36;;;;;;;7.68;4.32;;;17.10;99.90;;;;;;5025463;28;20884;-77
2022/10/11 11:16:10;;;;;;;6.45;2.92;;;17.00;99.90;;;;;;5024999;28;20025;-76
2022/10/11 11:18:45;;;;;;;8.57;3.28;;;17.10;99.90;;;;;;5024960;28;20064;-76
2022/10/11 11:21:20;;;;;;;7.78;3.22;;;17.10;99.90;;;;;;5027299;28;20025;-77
2022/10/11 11:24:13;;;;;;;6.53;3.53;;;17.10;99.90;;;;;;5025774;28;20033;-76
2022/10/11 11:26:55;;;;;;;6.50;2.90;;;17.20;99.90;;;;;;5026442;28;20041;-77
2022/10/11 11:30:02;;;;;;;8.45;3.58;;;17.20;99.90;;;;;;5025870;28;20025;-76
2022/10/11 11:32:44;;;;;;;7.75;3.70;;;17.30;99.90;;;;;;5024724;28;20087;-76
2022/10/11 11:35:15;;;;;;;6.75;3.47;;;17.40;99.90;;;;;;5024677;28;20117;-76
2022/10/11 11:37:44;;;;;;;9.88;3.65;;;17.40;99.90;;;;;;5025987;28;20029;-77
2022/10/11 11:40:33;;;;;;;6.05;3.45;;;17.50;99.90;;;;;;5026203;28;20431;-77
2022/10/11 11:43:10;;;;;;;8.57;3.70;;;17.60;99.90;;;;;;5025588;28;20025;-74
2022/10/11 11:45:45;;;;;;;11.15;3.35;;;17.70;99.90;;;;;;5025843;28;20517;-76
2022/10/11 11:48:24;;;;;;;8.68;3.47;;;17.80;99.90;;;;;;5022989;28;20029;-77
2022/10/11 11:51:06;;;;;;;6.82;3.33;;;17.90;99.90;;;;;;5028439;28;20068;-76
2022/10/11 11:53:58;;;;;;;6.13;3.33;;;17.90;99.90;;;;;;5023073;28;20115;-77
2022/10/11 11:56:41;;;;;;;5.72;3.17;;;18.00;99.90;;;;;;5024339;28;20036;-77
2022/10/11 11:59:32;;;;;;;6.57;3.00;;;18.10;99.90;;;;;;5024166;28;20076;-77
2022/10/11 12:02:28;;;;;;;6.38;3.60;;;18.10;99.90;;;;;;5024026;28;20041;-74
2022/10/11 12:04:53;;;;;;;7.03;3.17;;;18.10;99.90;;;;;;5025397;28;20124;-77
2022/10/11 12:07:25;;;;;;;9.82;3.65;;;18.20;99.90;;;;;;5024027;28;20411;-77
2022/10/11 12:09:54;;;;;;;30.27;5.35;;;18.30;99.90;;;;;;5024205;28;20029;-76
2022/10/11 12:12:32;;;;;;;6.05;3.42;;;18.40;99.90;;;;;;5022686;28;20379;-74
2022/10/11 12:15:18;;;;;;;9.15;3.38;;;18.30;99.90;;;;;;5021620;28;20038;-74
2022/10/11 12:17:56;;;;;;;19.77;4.43;;;18.40;99.90;;;;;;5021292;28;20038;-74
2022/10/11 12:20:27;;;;;;;10.73;3.88;;;18.50;99.90;;;;;;5023979;28;20108;-74
2022/10/11 12:22:52;;;;;;;6.35;3.65;;;18.50;99.90;;;;;;5023521;28;20034;-74
2022/10/11 12:25:21;;;;;;;6.20;3.17;;;18.50;99.80;;;;;;5024849;28;20029;-75
2022/10/11 12:27:52;;;;;;;18.38;3.58;;;18.40;99.90;;;;;;5023727;28;20029;-74
2022/10/11 12:30:43;;;;;;;8.68;3.35;;;18.40;99.90;;;;;;5023950;28;20083;-77
2022/10/11 12:33:31;;;;;;;5.70;3.47;;;18.60;99.90;;;;;;5023910;28;20529;-75
2022/10/11 12:36:01;;;;;;;7.32;3.17;;;18.70;99.90;;;;;;5037144;28;20191;-75
2022/10/11 12:38:29;;;;;;;10.13;4.65;;;18.70;99.90;;;;;;5023590;28;20400;-75
2022/10/11 12:40:59;;;;;;;6.30;3.33;;;18.80;99.90;;;;;;5022873;28;20082;-74
2022/10/11 12:43:29;;;;;;;5.88;2.70;;;18.70;99.90;;;;;;5023338;28;20029;-74
2022/10/11 12:45:55;;;;;;;9.63;3.65;;;18.70;99.80;;;;;;5020916;28;20629;-75
2022/10/11 12:48:59;;;;;;;11.18;3.90;;;18.70;99.90;;;;;;5023004;28;20032;-77
2022/10/11 12:51:34;;;;;;;9.97;3.63;;;18.80;99.90;;;;;;5022920;28;20114;-74
2022/10/11 12:54:27;;;;;;;6.88;3.28;;;18.90;99.90;;;;;;5019150;28;20038;-75
2022/10/11 12:57:01;;;;;;;8.70;3.80;;;18.90;99.80;;;;;;5020532;28;20472;-77
2022/10/11 12:59:30;;;;;;;6.65;3.60;;;18.90;99.90;;;;;;5022019;28;20021;-74
2022/10/11 13:01:58;;;;;;;9.38;3.67;;;19.10;99.90;;;;;;5023993;28;20083;-74
2022/10/11 13:04:30;;;;;;;6.80;3.13;;;19.10;99.80;;;;;;5028568;28;20134;-74
2022/10/11 13:07:01;;;;;;;11.75;4.32;;;19.10;99.90;;;;;;5025429;28;20030;-75
2022/10/11 13:09:34;;;;;;;9.73;4.18;;;19.10;99.90;;;;;;5029265;28;20608;-76